createdAt,value
2023-09-23T00:00:18.008Z,0.97
2023-09-23T00:02:45.616Z,1.05
2023-09-23T00:05:12.837Z,0.99
2023-09-23T00:07:49.917Z,0.96
2023-09-23T00:10:17.105Z,1.00
2023-09-23T00:12:44.176Z,1.07
2023-09-23T00:15:11.328Z,1.07
2023-09-23T00:17:38.177Z,1.01
2023-09-23T00:20:08.000Z,1.10
2023-09-23T00:22:34.911Z,1.10
2023-09-23T00:25:01.870Z,0.99
2023-09-23T00:27:28.595Z,1.16
2023-09-23T00:29:55.554Z,1.10
2023-09-23T00:32:22.415Z,0.97
2023-09-23T00:34:49.710Z,1.00
2023-09-23T00:37:16.556Z,0.95
2023-09-23T00:39:43.460Z,1.19
2023-09-23T00:42:10.587Z,1.12
2023-09-23T00:44:38.445Z,1.11
2023-09-23T00:47:05.348Z,1.27
2023-09-23T00:49:32.665Z,1.01
2023-09-23T00:51:59.793Z,1.19
2023-09-23T00:54:27.376Z,1.14
2023-09-23T00:56:54.122Z,1.06
2023-09-23T00:59:20.928Z,1.11
2023-09-23T01:01:52.941Z,1.24
2023-09-23T01:04:20.201Z,1.24
2023-09-23T01:06:50.357Z,1.07
2023-09-23T01:09:17.730Z,1.10
2023-09-23T01:11:44.822Z,0.82
2023-09-23T01:14:11.698Z,0.67
2023-09-23T01:16:39.804Z,0.71
2023-09-23T01:19:09.614Z,0.69
2023-09-23T01:21:37.039Z,0.67
2023-09-23T01:24:05.045Z,0.69
2023-09-23T01:26:31.863Z,0.71
2023-09-23T01:28:59.171Z,0.67
2023-09-23T01:31:26.044Z,0.58
2023-09-23T01:33:52.949Z,0.63
2023-09-23T01:36:56.839Z,0.65
2023-09-23T01:39:23.749Z,0.67
2023-09-23T01:41:51.023Z,0.60
2023-09-23T01:44:18.291Z,0.68
2023-09-23T01:46:46.439Z,0.72
2023-09-23T01:49:13.899Z,0.68
2023-09-23T01:51:41.366Z,0.65
2023-09-23T01:54:08.609Z,0.76
2023-09-23T01:56:35.624Z,0.77
2023-09-23T01:59:04.022Z,0.65
2023-09-23T02:01:32.124Z,0.71
2023-09-23T02:03:59.450Z,0.82
2023-09-23T02:06:26.306Z,0.86
2023-09-23T02:08:54.370Z,0.70
2023-09-23T02:11:21.621Z,0.75
2023-09-23T02:13:48.802Z,0.72
2023-09-23T02:16:15.789Z,0.74
2023-09-23T02:18:42.539Z,0.73
2023-09-23T02:21:09.694Z,0.74
2023-09-23T02:23:36.517Z,0.68
2023-09-23T02:26:04.468Z,0.98
2023-09-23T02:28:31.590Z,0.72
2023-09-23T02:30:59.798Z,0.77
2023-09-23T02:33:27.098Z,0.76
2023-09-23T02:35:54.161Z,0.80
2023-09-23T02:38:21.825Z,0.75
2023-09-23T02:41:19.577Z,0.78
2023-09-23T02:43:46.508Z,0.81
2023-09-23T02:46:13.471Z,0.89
2023-09-23T02:48:40.420Z,0.77
2023-09-23T02:51:07.236Z,0.79
2023-09-23T02:53:34.465Z,0.83
2023-09-23T02:56:06.989Z,1.24
2023-09-23T02:58:33.921Z,0.88
2023-09-23T03:01:01.145Z,0.76
2023-09-23T03:03:28.444Z,0.73
2023-09-23T03:05:56.354Z,0.78
2023-09-23T03:08:24.191Z,0.69
2023-09-23T03:10:51.126Z,0.71
2023-09-23T03:13:18.291Z,0.82
2023-09-23T03:15:55.431Z,0.89
2023-09-23T03:18:22.298Z,0.77
2023-09-23T03:20:49.431Z,0.75
2023-09-23T03:23:16.423Z,0.69
2023-09-23T03:25:47.111Z,0.76
2023-09-23T03:28:31.357Z,0.69
2023-09-23T03:31:01.489Z,0.72
2023-09-23T03:33:28.636Z,0.55
2023-09-23T03:36:04.315Z,0.69
2023-09-23T03:38:31.358Z,0.64
2023-09-23T03:40:58.867Z,0.74
2023-09-23T03:43:26.952Z,0.85
2023-09-23T03:45:53.815Z,0.76
2023-09-23T03:48:20.758Z,0.75
2023-09-23T03:51:25.458Z,0.62
2023-09-23T03:53:52.391Z,0.72
2023-09-23T03:56:19.875Z,0.78
2023-09-23T03:58:47.721Z,0.78
2023-09-23T04:01:15.419Z,0.62
2023-09-23T04:03:42.684Z,1.98
2023-09-23T04:06:10.044Z,0.72
2023-09-23T04:08:57.103Z,0.59
2023-09-23T04:11:26.834Z,0.75
2023-09-23T04:14:14.090Z,0.70
2023-09-23T04:16:40.927Z,0.79
2023-09-23T04:19:07.833Z,0.63
2023-09-23T04:21:34.909Z,0.73
2023-09-23T04:24:02.035Z,0.82
2023-09-23T04:26:29.366Z,0.91
2023-09-23T04:28:56.409Z,0.80
2023-09-23T04:31:23.524Z,1.00
2023-09-23T04:33:50.345Z,0.80
2023-09-23T04:36:17.220Z,0.82
2023-09-23T04:38:44.142Z,0.94
2023-09-23T04:41:11.321Z,0.77
2023-09-23T04:43:38.620Z,0.86
2023-09-23T04:46:05.850Z,0.78
2023-09-23T04:48:35.788Z,0.85
2023-09-23T04:51:02.908Z,0.87
2023-09-23T04:53:32.720Z,1.04
2023-09-23T04:56:00.013Z,0.84
2023-09-23T04:58:27.292Z,0.78
2023-09-23T05:00:54.460Z,0.84
2023-09-23T05:03:21.539Z,0.79
2023-09-23T05:06:11.006Z,0.82
2023-09-23T05:08:38.101Z,0.81
2023-09-23T05:11:05.372Z,0.84
2023-09-23T05:13:32.588Z,0.81
2023-09-23T05:15:59.841Z,0.75
2023-09-23T05:18:26.977Z,0.82
2023-09-23T05:20:54.093Z,0.88
2023-09-23T05:23:21.413Z,0.90
2023-09-23T05:25:54.854Z,0.79
2023-09-23T05:28:22.044Z,0.92
2023-09-23T05:30:51.786Z,1.08
2023-09-23T05:33:20.088Z,1.27
2023-09-23T05:35:47.296Z,1.17
2023-09-23T05:38:14.129Z,1.13
2023-09-23T05:40:41.888Z,1.12
2023-09-23T05:43:09.527Z,1.19
2023-09-23T05:45:37.114Z,1.09
2023-09-23T05:48:07.297Z,1.25
2023-09-23T05:50:35.262Z,1.13
2023-09-23T05:53:02.331Z,1.05
2023-09-23T05:55:31.010Z,1.12
2023-09-23T05:57:58.100Z,1.19
2023-09-23T06:00:25.583Z,1.42
2023-09-23T06:02:55.222Z,1.19
2023-09-23T06:05:25.690Z,1.00
2023-09-23T06:07:55.992Z,1.10
2023-09-23T06:10:23.230Z,1.43
2023-09-23T06:12:51.236Z,1.25
2023-09-23T06:15:18.368Z,1.18
2023-09-23T06:17:45.867Z,1.16
2023-09-23T06:20:21.843Z,1.16
2023-09-23T06:22:52.023Z,1.17
2023-09-23T06:25:19.274Z,1.09
2023-09-23T06:27:47.118Z,2.13
2023-09-23T06:30:14.342Z,5.34
2023-09-23T06:32:41.609Z,4.38
2023-09-23T06:35:09.279Z,3.45
2023-09-23T06:37:36.666Z,1.76
2023-09-23T06:40:04.965Z,1.40
2023-09-23T06:42:33.286Z,1.20
2023-09-23T06:45:00.512Z,1.03
2023-09-23T06:47:27.674Z,0.98
2023-09-23T06:49:54.714Z,0.90
2023-09-23T06:52:22.852Z,0.86
2023-09-23T06:54:49.689Z,1.01
2023-09-23T06:57:17.868Z,1.24
2023-09-23T06:59:45.067Z,1.36
2023-09-23T07:02:12.048Z,0.95
2023-09-23T07:04:40.475Z,0.77
2023-09-23T07:07:07.584Z,0.68
2023-09-23T07:09:34.859Z,0.69
2023-09-23T07:15:55.429Z,0.81
2023-09-23T07:18:23.980Z,0.67
2023-09-23T07:20:57.004Z,0.73
2023-09-23T07:23:25.833Z,1.70
2023-09-23T07:25:55.576Z,0.76
2023-09-23T07:28:23.005Z,0.61
2023-09-23T07:30:50.927Z,0.58
2023-09-23T07:33:18.207Z,0.54
2023-09-23T07:35:45.350Z,0.61
2023-09-23T07:38:12.944Z,0.57
2023-09-23T07:40:40.303Z,0.92
2023-09-23T07:43:07.461Z,0.75
2023-09-23T07:45:35.281Z,0.70
2023-09-23T07:48:05.113Z,0.76
2023-09-23T07:50:32.303Z,0.76
2023-09-23T07:53:00.526Z,0.84
2023-09-23T07:55:28.124Z,0.86
2023-09-23T07:57:56.312Z,0.64
2023-09-23T08:00:23.575Z,1.08
2023-09-23T08:02:52.475Z,0.97
2023-09-23T08:16:35.945Z,0.81
2023-09-23T08:19:07.890Z,0.71
2023-09-23T08:29:13.143Z,0.80
2023-09-23T08:31:40.930Z,0.73
2023-09-23T08:43:31.689Z,0.59
2023-09-23T09:33:37.890Z,0.69
2023-09-23T09:36:06.840Z,0.74
2023-09-23T09:38:43.304Z,0.69
2023-09-23T09:41:40.041Z,0.83
2023-09-23T09:59:43.340Z,0.63
2023-09-23T10:37:44.898Z,0.81
2023-09-23T10:40:13.080Z,0.88
2023-09-23T10:42:42.224Z,1.02
2023-09-23T10:45:10.556Z,0.87
2023-09-23T10:47:38.929Z,0.92
2023-09-23T10:50:22.807Z,0.96
2023-09-23T10:52:50.694Z,0.83
2023-09-23T10:55:25.616Z,0.74
2023-09-23T10:57:56.311Z,0.99
2023-09-23T11:00:23.923Z,0.82
2023-09-23T11:02:52.859Z,0.81
2023-09-23T11:05:22.932Z,0.76
2023-09-23T11:07:50.429Z,0.68
2023-09-23T11:10:17.346Z,0.77
2023-09-23T11:12:44.753Z,0.72
2023-09-23T11:15:13.070Z,0.70
2023-09-23T11:17:41.465Z,0.71
2023-09-23T11:20:09.756Z,0.80
2023-09-23T11:22:37.146Z,0.82
2023-09-23T11:25:08.581Z,0.73
2023-09-23T11:27:35.507Z,0.85
2023-09-23T11:30:02.774Z,0.76
2023-09-23T11:32:29.912Z,0.77
2023-09-23T12:31:19.920Z,0.83
2023-09-23T12:33:47.052Z,0.59
2023-09-23T12:36:14.224Z,0.73
2023-09-23T12:38:41.211Z,0.87
2023-09-23T12:41:09.292Z,0.71
2023-09-23T12:43:39.014Z,0.76
2023-09-23T12:46:05.867Z,0.87
2023-09-23T12:48:32.655Z,0.82
2023-09-23T12:50:59.887Z,0.95
2023-09-23T12:53:27.061Z,0.82
2023-09-23T12:55:53.901Z,0.99
2023-09-23T12:58:20.696Z,0.84
2023-09-23T13:00:47.493Z,0.71
2023-09-23T13:03:15.246Z,0.83
2023-09-23T13:05:43.837Z,0.68
2023-09-23T13:08:10.664Z,0.70
2023-09-23T13:10:37.800Z,0.62
2023-09-23T13:13:04.731Z,0.72
2023-09-23T13:15:43.039Z,0.81
2023-09-23T13:18:10.855Z,0.83
2023-09-23T13:20:37.837Z,0.75
2023-09-23T13:23:05.580Z,0.73
2023-09-23T13:25:32.571Z,0.73
2023-09-23T13:28:00.402Z,0.89
2023-09-23T13:30:27.582Z,0.76
2023-09-23T13:32:55.597Z,0.69
2023-09-23T13:35:25.385Z,0.77
2023-09-23T13:37:55.307Z,0.77
2023-09-23T13:40:23.802Z,0.83
2023-09-23T13:42:50.997Z,0.83
2023-09-23T13:45:18.349Z,0.88
2023-09-23T13:47:46.598Z,0.80
2023-09-23T13:50:13.561Z,0.93
2023-09-23T13:52:41.634Z,0.95
2023-09-23T13:55:22.633Z,0.76
2023-09-23T13:57:49.841Z,0.71
2023-09-23T14:00:16.688Z,0.83
2023-09-23T14:02:44.900Z,1.01
2023-09-23T14:05:12.793Z,0.88
2023-09-23T14:07:39.769Z,0.85
2023-09-23T14:10:20.417Z,0.82
2023-09-23T14:12:50.088Z,0.86
2023-09-23T14:15:17.977Z,0.75
2023-09-23T14:17:45.342Z,0.89
2023-09-23T14:20:13.979Z,0.87
2023-09-23T14:22:41.771Z,0.84
2023-09-23T14:25:11.604Z,0.89
2023-09-23T14:27:41.370Z,0.79
2023-09-23T14:30:11.517Z,0.78
2023-09-23T14:32:38.384Z,0.88
2023-09-23T14:35:08.209Z,0.87
2023-09-23T14:37:35.483Z,0.94
2023-09-23T14:40:02.643Z,0.89
2023-09-23T14:42:29.534Z,0.96
2023-09-23T14:44:56.278Z,0.77
2023-09-23T14:47:25.994Z,0.93
2023-09-23T14:49:53.167Z,0.88
2023-09-23T14:52:20.270Z,0.84
2023-09-23T14:54:47.243Z,0.89
2023-09-23T14:57:14.951Z,1.15
2023-09-23T14:59:41.837Z,1.11
2023-09-23T15:02:09.111Z,0.87
2023-09-23T15:04:36.480Z,0.93
2023-09-23T15:07:03.778Z,0.74
2023-09-23T15:09:30.618Z,0.90
2023-09-23T15:11:57.353Z,0.98
2023-09-23T15:14:24.834Z,0.92
2023-09-23T15:16:54.793Z,0.92
2023-09-23T15:19:21.938Z,0.89
2023-09-23T15:21:48.773Z,0.89
2023-09-23T15:24:18.684Z,1.09
2023-09-23T15:26:45.572Z,1.07
2023-09-23T15:29:12.384Z,1.20
2023-09-23T15:31:40.413Z,0.92
2023-09-23T15:34:10.410Z,1.02
2023-09-23T15:36:37.307Z,1.01
2023-09-23T15:39:05.434Z,1.04
2023-09-23T15:41:32.263Z,0.96
2023-09-23T15:43:59.464Z,1.07
2023-09-23T15:46:26.242Z,1.07
2023-09-23T15:48:53.104Z,1.02
2023-09-23T15:51:21.367Z,1.09
2023-09-23T15:53:48.281Z,0.86
2023-09-23T15:56:16.964Z,0.97
2023-09-23T15:58:43.789Z,0.90
2023-09-23T16:01:10.681Z,0.97
2023-09-23T16:03:37.615Z,1.03
2023-09-23T16:06:07.675Z,1.12
2023-09-23T16:08:34.483Z,1.06
2023-09-23T16:11:04.636Z,0.98
2023-09-23T16:13:33.154Z,1.22
2023-09-23T16:16:00.044Z,1.02
2023-09-23T16:18:30.051Z,1.19
2023-09-23T16:20:57.322Z,1.00
2023-09-23T16:23:26.920Z,1.01
2023-09-23T16:25:54.148Z,1.07
2023-09-23T16:28:23.721Z,0.94
2023-09-23T16:30:50.708Z,1.15
2023-09-23T16:33:17.963Z,0.94
2023-09-23T16:35:44.946Z,1.05
2023-09-23T16:38:12.046Z,1.10
2023-09-23T16:40:40.445Z,1.12
2023-09-23T16:43:07.639Z,1.06
2023-09-23T16:45:36.979Z,0.98
2023-09-23T16:48:03.907Z,1.00
2023-09-23T16:50:33.519Z,1.05
2023-09-23T16:53:00.489Z,1.00
2023-09-23T16:55:30.302Z,2.15
2023-09-23T16:57:57.035Z,1.52
2023-09-23T17:00:24.858Z,1.17
2023-09-23T17:02:52.339Z,1.35
2023-09-23T17:05:19.137Z,1.37
2023-09-23T17:07:46.372Z,1.49
2023-09-23T17:10:13.221Z,1.45
2023-09-23T17:12:41.373Z,1.20
2023-09-23T17:15:09.081Z,1.18
2023-09-23T17:17:35.848Z,1.31
2023-09-23T17:20:05.011Z,1.38
2023-09-23T17:22:31.736Z,1.27
2023-09-23T17:24:58.523Z,1.20
2023-09-23T17:27:25.325Z,1.43
2023-09-23T17:29:52.433Z,1.37
2023-09-23T17:32:19.274Z,1.28
2023-09-23T17:34:46.104Z,1.35
2023-09-23T17:37:13.285Z,1.35
2023-09-23T17:39:40.591Z,1.36
2023-09-23T17:42:07.921Z,1.19
2023-09-23T17:44:38.056Z,1.32
2023-09-23T17:47:05.510Z,1.38
2023-09-23T17:49:35.025Z,1.31
2023-09-23T17:52:01.791Z,1.59
2023-09-23T17:54:28.608Z,1.48
2023-09-23T17:56:55.997Z,1.14
2023-09-23T17:59:23.839Z,1.20
2023-09-23T18:01:51.041Z,1.16
2023-09-23T18:04:17.859Z,1.19
2023-09-23T18:06:44.661Z,1.12
2023-09-23T18:09:11.491Z,1.62
2023-09-23T18:11:38.426Z,1.26
2023-09-23T18:14:05.826Z,1.35
2023-09-23T18:16:33.613Z,1.46
2023-09-23T18:19:00.372Z,1.32
2023-09-23T18:21:27.338Z,1.33
2023-09-23T18:23:54.276Z,1.31
2023-09-23T18:26:21.224Z,1.55
2023-09-23T18:28:50.984Z,1.27
2023-09-23T18:31:17.696Z,1.27
2023-09-23T18:33:45.113Z,1.31
2023-09-23T18:36:12.435Z,1.27
2023-09-23T18:38:39.467Z,1.38
2023-09-23T18:41:07.918Z,1.31
2023-09-23T18:43:35.088Z,1.35
2023-09-23T18:46:01.950Z,1.35
2023-09-23T18:48:31.762Z,1.36
2023-09-23T18:50:59.981Z,1.39
2023-09-23T18:53:28.438Z,1.24
2023-09-23T18:55:55.799Z,1.26
2023-09-23T18:58:42.628Z,1.22
2023-09-23T19:01:29.542Z,1.34
2023-09-23T19:04:16.805Z,1.48
2023-09-23T19:06:44.446Z,1.47
2023-09-23T19:09:12.703Z,1.34
2023-09-23T19:11:39.841Z,1.31
2023-09-23T19:14:06.682Z,1.44
2023-09-23T19:16:33.434Z,1.20
2023-09-23T19:19:00.181Z,1.45
2023-09-23T19:21:26.961Z,1.71
2023-09-23T19:23:53.817Z,1.61
2023-09-23T19:26:20.768Z,1.36
2023-09-23T19:28:47.578Z,1.40
2023-09-23T19:31:17.168Z,1.49
2023-09-23T19:33:45.838Z,1.62
2023-09-23T19:36:13.242Z,1.67
2023-09-23T19:38:40.438Z,1.49
2023-09-23T19:41:07.495Z,1.50
2023-09-23T19:43:34.417Z,1.55
2023-09-23T19:46:02.354Z,1.69
2023-09-23T19:48:29.131Z,1.75
2023-09-23T19:50:57.176Z,1.77
2023-09-23T19:53:24.333Z,1.63
2023-09-23T19:55:51.442Z,1.37
2023-09-23T19:58:18.643Z,1.48
2023-09-23T20:00:48.724Z,1.40
2023-09-23T20:03:15.553Z,1.35
2023-09-23T20:05:42.467Z,1.31
2023-09-23T20:08:09.253Z,1.17
2023-09-23T20:10:36.501Z,1.19
2023-09-23T20:13:04.224Z,1.18
2023-09-23T20:15:33.924Z,1.32
2023-09-23T20:18:01.052Z,1.45
2023-09-23T20:20:28.702Z,1.34
2023-09-23T20:22:55.492Z,1.38
2023-09-23T20:25:22.300Z,1.39
2023-09-23T20:27:49.204Z,1.36
2023-09-23T20:30:17.245Z,1.33
2023-09-23T20:32:44.108Z,1.97
2023-09-23T20:35:11.459Z,1.13
2023-09-23T20:37:38.823Z,1.38
2023-09-23T20:40:11.103Z,1.31
2023-09-23T20:42:37.942Z,1.15
2023-09-23T20:45:06.132Z,1.11
2023-09-23T20:47:34.325Z,1.07
2023-09-23T20:50:01.937Z,1.13
2023-09-23T20:52:29.137Z,1.08
2023-09-23T20:54:57.041Z,1.10
2023-09-23T20:57:23.888Z,1.09
2023-09-23T20:59:51.132Z,1.27
2023-09-23T21:02:18.012Z,1.06
2023-09-23T21:04:45.647Z,1.32
2023-09-23T21:07:12.685Z,1.22
2023-09-23T21:09:40.765Z,1.19
2023-09-23T21:12:07.771Z,0.98
2023-09-23T21:14:34.982Z,1.07
2023-09-23T21:17:01.885Z,1.18
2023-09-23T21:19:29.018Z,1.26
2023-09-23T21:21:55.760Z,1.15
2023-09-23T21:24:22.499Z,1.11
2023-09-23T21:26:49.285Z,1.04
2023-09-23T21:29:16.556Z,1.09
2023-09-23T21:31:43.686Z,1.16
2023-09-23T21:34:10.435Z,1.28
2023-09-23T21:36:37.164Z,1.26
2023-09-23T21:39:03.933Z,1.35
2023-09-23T21:41:31.058Z,1.37
2023-09-23T21:43:57.856Z,1.41
2023-09-23T21:46:24.987Z,1.31
2023-09-23T21:48:51.742Z,1.49
2023-09-23T21:51:18.804Z,1.38
2023-09-23T21:53:46.490Z,1.50
2023-09-23T21:56:13.408Z,1.67
2023-09-23T21:58:40.156Z,1.58
2023-09-23T22:01:08.501Z,1.94
2023-09-23T22:03:35.507Z,1.80
2023-09-23T22:06:02.614Z,1.89
2023-09-23T22:08:29.668Z,2.02
2023-09-23T22:10:56.505Z,2.03
2023-09-23T22:13:23.783Z,1.93
2023-09-23T22:15:50.590Z,2.29
2023-09-23T22:18:17.431Z,2.30
2023-09-23T22:20:44.508Z,2.09
2023-09-23T22:23:11.827Z,2.07
2023-09-23T22:25:38.769Z,1.99
2023-09-23T22:28:06.423Z,2.11
2023-09-23T22:30:33.234Z,2.22
2023-09-23T22:33:00.015Z,2.20
2023-09-23T22:35:28.181Z,2.27
2023-09-23T22:37:55.255Z,1.93
2023-09-23T22:40:23.208Z,2.22
2023-09-23T22:42:50.790Z,2.15
2023-09-23T22:45:32.130Z,2.21
2023-09-23T22:48:04.671Z,1.78
2023-09-23T22:50:32.462Z,1.81
2023-09-23T22:52:59.608Z,1.72
2023-09-23T22:55:26.688Z,1.81
2023-09-23T22:57:54.832Z,1.59
2023-09-23T23:00:22.915Z,1.72
2023-09-23T23:02:50.111Z,1.67
2023-09-23T23:05:17.465Z,1.56
2023-09-23T23:07:48.833Z,1.48
2023-09-23T23:10:18.789Z,1.57
2023-09-23T23:12:46.853Z,1.54
2023-09-23T23:15:17.579Z,1.48
2023-09-23T23:17:45.370Z,1.38
2023-09-23T23:20:14.576Z,1.62
2023-09-23T23:22:42.097Z,1.64
2023-09-23T23:25:10.562Z,1.65
2023-09-23T23:27:37.293Z,1.66
2023-09-23T23:30:04.616Z,1.76
2023-09-23T23:32:32.417Z,1.64
2023-09-23T23:34:59.540Z,1.65
2023-09-23T23:37:26.278Z,1.71
2023-09-23T23:39:53.122Z,1.67
2023-09-23T23:42:19.873Z,1.98
2023-09-23T23:44:50.192Z,1.72
2023-09-23T23:47:19.010Z,1.77
2023-09-23T23:49:48.477Z,1.75
2023-09-23T23:52:19.177Z,1.72
2023-09-23T23:54:46.394Z,1.68
2023-09-23T23:57:13.498Z,1.74
2023-09-23T23:59:40.383Z,1.76
